createdAt,value
2018-11-04T00:01:20.113Z,3.00
2018-11-04T00:03:48.284Z,3.00
2018-11-04T00:06:16.352Z,3.00
2018-11-04T00:08:44.460Z,3.00
2018-11-04T00:11:12.515Z,3.00
2018-11-04T00:13:40.529Z,2.90
2018-11-04T00:16:08.684Z,2.90
2018-11-04T00:18:36.709Z,2.90
2018-11-04T00:21:04.822Z,2.90
2018-11-04T00:23:32.848Z,2.90
2018-11-04T00:26:00.941Z,2.90
2018-11-04T00:28:29.034Z,2.90
2018-11-04T00:30:57.145Z,2.90
2018-11-04T00:33:25.198Z,2.90
2018-11-04T00:35:53.254Z,2.90
2018-11-04T00:38:21.658Z,2.90
2018-11-04T00:40:49.704Z,2.90
2018-11-04T00:43:17.870Z,2.80
2018-11-04T00:45:45.926Z,2.90
2018-11-04T00:48:13.993Z,2.90
2018-11-04T00:50:42.078Z,2.90
2018-11-04T00:53:10.179Z,2.90
2018-11-04T00:55:38.245Z,3.00
2018-11-04T00:58:06.314Z,3.00
2018-11-04T01:00:34.397Z,3.10
2018-11-04T01:03:02.462Z,3.10
2018-11-04T01:05:30.615Z,3.10
2018-11-04T01:07:58.664Z,3.20
2018-11-04T01:10:26.825Z,3.30
2018-11-04T01:12:54.848Z,3.30
2018-11-04T01:15:22.875Z,3.30
2018-11-04T01:17:50.984Z,3.30
2018-11-04T01:20:19.060Z,3.40
2018-11-04T01:22:47.122Z,3.50
2018-11-04T01:25:15.267Z,3.50
2018-11-04T01:27:43.334Z,3.50
2018-11-04T01:30:11.550Z,3.50
2018-11-04T01:32:39.655Z,3.50
2018-11-04T01:35:07.778Z,3.50
2018-11-04T01:37:35.837Z,3.50
2018-11-04T01:40:04.908Z,3.50
2018-11-04T01:42:32.949Z,3.50
2018-11-04T01:45:01.022Z,3.50
2018-11-04T01:47:29.104Z,3.50
2018-11-04T01:49:57.129Z,3.60
2018-11-04T01:52:25.165Z,3.50
2018-11-04T01:54:53.225Z,3.50
2018-11-04T01:57:21.278Z,3.50
2018-11-04T02:02:23.727Z,3.40
2018-11-04T02:04:51.730Z,3.40
2018-11-04T02:07:19.792Z,3.40
2018-11-04T02:09:47.842Z,3.40
2018-11-04T02:12:15.889Z,3.40
2018-11-04T02:14:43.970Z,3.40
2018-11-04T02:17:12.006Z,3.30
2018-11-04T02:19:40.074Z,3.30
2018-11-04T02:22:08.159Z,3.40
2018-11-04T02:24:36.209Z,3.40
2018-11-04T02:27:04.503Z,3.40
2018-11-04T02:29:32.542Z,3.40
2018-11-04T02:32:00.624Z,3.30
2018-11-04T02:34:28.633Z,3.40
2018-11-04T02:36:56.690Z,3.30
2018-11-04T02:39:24.732Z,3.30
2018-11-04T02:41:52.892Z,3.30
2018-11-04T02:44:20.943Z,3.20
2018-11-04T02:46:48.999Z,3.20
2018-11-04T02:49:17.039Z,3.20
2018-11-04T02:51:45.093Z,3.20
2018-11-04T02:54:13.188Z,3.20
2018-11-04T02:56:41.413Z,3.20
2018-11-04T02:59:09.544Z,3.20
2018-11-04T03:02:41.145Z,3.10
2018-11-04T03:05:09.220Z,3.10
2018-11-04T03:07:37.265Z,3.10
2018-11-04T03:10:05.794Z,3.10
2018-11-04T03:12:33.837Z,3.10
2018-11-04T03:15:01.874Z,3.10
2018-11-04T03:17:29.938Z,3.10
2018-11-04T03:19:57.993Z,3.10
2018-11-04T03:22:26.046Z,3.10
2018-11-04T03:24:54.112Z,3.10
2018-11-04T03:27:22.176Z,3.20
2018-11-04T03:29:50.212Z,3.20
2018-11-04T03:32:18.227Z,3.30
2018-11-04T03:34:46.281Z,3.40
2018-11-04T03:37:14.480Z,3.40
2018-11-04T03:39:42.522Z,3.50
2018-11-04T03:42:10.567Z,3.60
2018-11-04T03:44:38.781Z,3.60
2018-11-04T03:47:06.835Z,3.70
2018-11-04T03:49:34.881Z,3.70
2018-11-04T03:52:02.976Z,3.70
2018-11-04T03:54:30.988Z,3.80
2018-11-04T03:56:59.016Z,3.80
2018-11-04T03:59:27.116Z,3.80
2018-11-04T04:01:55.173Z,3.80
2018-11-04T04:04:23.183Z,3.80
2018-11-04T04:06:51.417Z,3.80
2018-11-04T04:09:19.464Z,3.80
2018-11-04T04:11:47.505Z,3.80
2018-11-04T04:14:15.533Z,3.80
2018-11-04T04:16:43.573Z,3.70
2018-11-04T04:19:11.609Z,3.70
2018-11-04T04:21:39.642Z,3.70
2018-11-04T04:24:07.671Z,3.60
2018-11-04T04:26:35.722Z,3.60
2018-11-04T04:29:03.768Z,3.60
2018-11-04T04:31:32.198Z,3.60
2018-11-04T04:34:00.263Z,3.60
2018-11-04T04:36:28.322Z,3.50
2018-11-04T04:38:56.382Z,3.50
2018-11-04T04:41:24.422Z,3.50
2018-11-04T04:43:52.488Z,3.50
2018-11-04T04:46:20.517Z,3.60
2018-11-04T04:48:48.627Z,3.60
2018-11-04T04:51:16.666Z,3.70
2018-11-04T04:53:44.719Z,3.80
2018-11-04T04:56:12.869Z,3.90
2018-11-04T04:58:41.064Z,3.90
2018-11-04T05:01:09.142Z,3.90
2018-11-04T05:03:37.241Z,4.00
2018-11-04T05:06:05.354Z,4.00
2018-11-04T05:08:33.841Z,4.10
2018-11-04T05:11:01.895Z,4.10
2018-11-04T05:13:29.982Z,4.20
2018-11-04T05:15:58.093Z,4.20
2018-11-04T05:18:26.157Z,4.30
2018-11-04T05:20:54.191Z,4.30
2018-11-04T05:23:22.256Z,4.30
2018-11-04T05:25:50.329Z,4.40
2018-11-04T05:28:18.365Z,4.40
2018-11-04T05:30:46.506Z,4.40
2018-11-04T05:33:14.550Z,4.50
2018-11-04T05:35:42.594Z,4.50
2018-11-04T05:38:10.658Z,4.50
2018-11-04T05:40:38.692Z,4.50
2018-11-04T05:43:06.753Z,4.40
2018-11-04T05:45:34.809Z,4.40
2018-11-04T05:48:02.910Z,4.50
2018-11-04T05:50:30.979Z,4.40
2018-11-04T05:52:59.024Z,4.50
2018-11-04T05:55:27.072Z,4.50
2018-11-04T05:57:55.098Z,4.50
2018-11-04T06:00:23.120Z,4.50
2018-11-04T06:02:51.229Z,4.50
2018-11-04T06:05:19.314Z,4.50
2018-11-04T06:07:47.345Z,4.50
2018-11-04T06:10:15.405Z,4.60
2018-11-04T06:12:43.555Z,4.60
2018-11-04T06:15:11.603Z,4.60
2018-11-04T06:17:39.645Z,4.70
2018-11-04T06:20:08.253Z,4.70
2018-11-04T06:22:36.280Z,4.80
2018-11-04T06:25:04.976Z,4.80
2018-11-04T06:27:33.015Z,4.80
2018-11-04T06:30:01.132Z,4.80
2018-11-04T06:32:29.169Z,4.80
2018-11-04T06:34:57.272Z,4.90
2018-11-04T06:37:25.323Z,4.90
2018-11-04T06:39:53.351Z,4.90
2018-11-04T06:42:21.443Z,5.00
2018-11-04T06:44:49.485Z,5.10
2018-11-04T06:47:17.527Z,5.10
2018-11-04T06:49:45.698Z,5.20
2018-11-04T06:52:13.751Z,5.20
2018-11-04T06:54:41.904Z,5.30
2018-11-04T06:57:09.962Z,5.40
2018-11-04T06:59:38.025Z,5.40
2018-11-04T07:02:06.067Z,5.50
2018-11-04T07:04:34.152Z,5.50
2018-11-04T07:07:02.209Z,5.60
2018-11-04T07:09:30.301Z,5.60
2018-11-04T07:11:58.353Z,5.70
2018-11-04T07:14:26.447Z,5.70
2018-11-04T07:16:54.528Z,5.80
2018-11-04T07:19:22.573Z,5.80
2018-11-04T07:21:50.607Z,5.90
2018-11-04T07:24:18.656Z,5.90
2018-11-04T07:26:46.731Z,6.00
2018-11-04T07:29:14.765Z,6.00
2018-11-04T07:31:42.872Z,6.10
2018-11-04T07:34:10.853Z,6.20
2018-11-04T07:36:38.934Z,6.20
2018-11-04T07:39:08.304Z,6.30
2018-11-04T07:41:36.416Z,6.40
2018-11-04T07:44:04.622Z,6.50
2018-11-04T07:46:32.661Z,6.60
2018-11-04T07:49:00.774Z,6.60
2018-11-04T07:51:28.891Z,6.70
2018-11-04T07:53:56.924Z,6.80
2018-11-04T07:56:24.996Z,6.90
2018-11-04T07:58:53.031Z,7.00
2018-11-04T08:01:21.242Z,7.00
2018-11-04T08:03:49.261Z,7.30
2018-11-04T08:06:17.491Z,7.40
2018-11-04T08:08:45.501Z,7.50
2018-11-04T08:11:13.551Z,7.50
2018-11-04T08:13:41.862Z,7.60
2018-11-04T08:16:09.763Z,7.60
2018-11-04T08:18:37.880Z,7.70
2018-11-04T08:21:05.955Z,7.80
2018-11-04T08:23:33.961Z,7.90
2018-11-04T08:26:02.055Z,7.90
2018-11-04T08:28:30.122Z,8.00
2018-11-04T08:30:58.163Z,8.20
2018-11-04T08:33:26.264Z,8.30
2018-11-04T08:35:54.437Z,8.40
2018-11-04T08:38:22.633Z,8.50
2018-11-04T08:40:50.695Z,8.50
2018-11-04T08:43:18.733Z,8.60
2018-11-04T08:45:46.926Z,8.60
2018-11-04T08:48:14.949Z,8.70
2018-11-04T08:50:43.025Z,8.80
2018-11-04T08:53:11.239Z,8.80
2018-11-04T08:55:39.270Z,8.90
2018-11-04T08:58:07.422Z,8.90
2018-11-04T09:00:35.460Z,9.00
2018-11-04T09:03:03.594Z,9.10
2018-11-04T09:05:31.635Z,9.20
2018-11-04T09:07:59.714Z,9.30
2018-11-04T09:10:28.022Z,9.40
2018-11-04T09:12:56.118Z,9.50
2018-11-04T09:15:24.202Z,9.50
2018-11-04T09:17:53.012Z,9.60
2018-11-04T09:20:21.020Z,9.60
2018-11-04T09:22:49.072Z,9.70
2018-11-04T09:25:17.149Z,9.70
2018-11-04T09:27:45.188Z,9.70
2018-11-04T09:30:13.227Z,9.80
2018-11-04T09:32:41.416Z,9.80
2018-11-04T09:35:09.682Z,9.80
2018-11-04T09:37:37.570Z,9.90
2018-11-04T09:40:07.255Z,9.90
2018-11-04T09:42:36.352Z,10.20
2018-11-04T09:45:05.256Z,10.80
2018-11-04T09:47:33.310Z,11.30
2018-11-04T09:50:02.039Z,11.60
2018-11-04T09:52:30.048Z,11.60
2018-11-04T09:54:58.138Z,11.50
2018-11-04T09:57:26.306Z,11.40
2018-11-04T09:59:54.378Z,11.20
2018-11-04T10:02:22.509Z,11.10
2018-11-04T10:04:50.551Z,11.10
2018-11-04T10:07:18.771Z,11.00
2018-11-04T10:09:46.731Z,11.00
2018-11-04T10:12:14.918Z,11.00
2018-11-04T10:14:43.083Z,11.00
2018-11-04T10:17:11.161Z,11.00
2018-11-04T10:19:39.451Z,11.10
2018-11-04T10:22:07.428Z,11.10
2018-11-04T10:24:35.463Z,11.10
2018-11-04T10:27:03.636Z,11.10
2018-11-04T10:29:31.850Z,11.20
2018-11-04T10:32:00.033Z,11.40
2018-11-04T10:34:28.290Z,11.50
2018-11-04T10:36:56.692Z,11.60
2018-11-04T10:39:25.148Z,11.70
2018-11-04T10:41:53.537Z,12.00
2018-11-04T10:44:22.565Z,12.20
2018-11-04T10:46:51.044Z,12.40
2018-11-04T10:49:19.174Z,12.50
2018-11-04T10:51:47.353Z,12.40
2018-11-04T10:54:15.440Z,12.60
2018-11-04T10:56:43.529Z,12.70
2018-11-04T10:59:11.612Z,12.70
2018-11-04T11:01:39.689Z,12.90
2018-11-04T11:04:07.811Z,13.00
2018-11-04T11:06:35.933Z,13.00
2018-11-04T11:09:07.139Z,13.00
2018-11-04T11:11:35.376Z,13.00
2018-11-04T11:14:03.926Z,13.00
2018-11-04T11:16:32.029Z,13.00
2018-11-04T11:19:00.158Z,13.00
2018-11-04T11:21:28.285Z,13.00
2018-11-04T11:23:56.387Z,13.00
2018-11-04T11:26:24.671Z,12.90
2018-11-04T11:28:52.971Z,12.90
2018-11-04T11:31:21.059Z,12.70
2018-11-04T11:33:49.183Z,12.60
2018-11-04T11:36:17.273Z,12.80
2018-11-04T11:38:45.350Z,13.10
2018-11-04T11:41:13.396Z,13.40
2018-11-04T11:43:41.502Z,13.80
2018-11-04T11:46:09.622Z,14.10
2018-11-04T11:48:37.865Z,14.30
2018-11-04T11:51:05.980Z,14.30
2018-11-04T11:53:34.039Z,14.20
2018-11-04T11:56:02.171Z,14.20
2018-11-04T11:58:30.233Z,14.10
2018-11-04T12:00:58.255Z,14.10
2018-11-04T12:03:26.282Z,14.10
2018-11-04T12:05:54.354Z,13.90
2018-11-04T12:08:22.440Z,13.80
2018-11-04T12:10:50.629Z,13.70
2018-11-04T12:13:18.740Z,13.60
2018-11-04T12:15:46.848Z,13.50
2018-11-04T12:18:14.918Z,13.40
2018-11-04T12:20:43.097Z,13.40
2018-11-04T12:23:11.353Z,13.20
2018-11-04T12:25:39.376Z,13.30
2018-11-04T12:28:07.471Z,13.10
2018-11-04T12:30:35.674Z,13.10
2018-11-04T12:33:03.844Z,13.00
2018-11-04T12:35:31.954Z,13.00
2018-11-04T12:38:00.101Z,13.00
2018-11-04T12:40:28.168Z,13.00
2018-11-04T12:42:56.313Z,13.00
2018-11-04T12:45:24.408Z,13.10
2018-11-04T12:47:52.519Z,13.10
2018-11-04T12:50:20.733Z,13.10
2018-11-04T12:52:48.798Z,13.20
2018-11-04T12:55:16.867Z,13.30
2018-11-04T12:57:44.929Z,13.30
2018-11-04T13:00:12.979Z,13.30
2018-11-04T13:02:41.172Z,13.40
2018-11-04T13:05:09.263Z,13.40
2018-11-04T13:07:37.355Z,13.30
2018-11-04T13:10:07.127Z,13.40
2018-11-04T13:12:35.304Z,13.40
2018-11-04T13:15:03.919Z,13.40
2018-11-04T13:17:32.083Z,13.40
2018-11-04T13:20:00.191Z,13.50
2018-11-04T13:22:28.293Z,13.50
2018-11-04T13:24:56.341Z,13.40
2018-11-04T13:27:24.476Z,13.30
2018-11-04T13:29:52.607Z,13.40
2018-11-04T13:32:20.822Z,13.40
2018-11-04T13:34:48.864Z,13.40
2018-11-04T13:37:16.927Z,13.50
2018-11-04T13:39:44.990Z,13.40
2018-11-04T13:42:13.057Z,13.30
2018-11-04T13:44:41.185Z,13.30
2018-11-04T13:47:09.269Z,13.30
2018-11-04T13:49:37.323Z,13.20
2018-11-04T13:52:05.449Z,13.30
2018-11-04T13:54:33.618Z,13.10
2018-11-04T13:57:01.714Z,13.00
2018-11-04T13:59:29.751Z,12.90
2018-11-04T14:01:57.833Z,12.90
2018-11-04T14:04:25.934Z,12.90
2018-11-04T14:06:54.023Z,13.00
2018-11-04T14:09:22.147Z,12.90
2018-11-04T14:11:50.234Z,13.00
2018-11-04T14:14:18.276Z,13.00
2018-11-04T14:16:46.381Z,12.90
2018-11-04T14:19:14.552Z,13.00
2018-11-04T14:21:42.662Z,13.00
2018-11-04T14:24:10.769Z,13.10
2018-11-04T14:26:38.782Z,13.30
2018-11-04T14:29:06.836Z,13.30
2018-11-04T14:31:34.882Z,13.30
2018-11-04T14:34:03.000Z,13.10
2018-11-04T14:36:31.057Z,13.10
2018-11-04T14:38:59.111Z,13.00
2018-11-04T14:41:27.165Z,12.90
2018-11-04T14:43:55.234Z,12.90
2018-11-04T14:46:23.321Z,12.80
2018-11-04T14:48:51.406Z,12.80
2018-11-04T14:51:19.540Z,12.80
2018-11-04T14:53:47.684Z,12.80
2018-11-04T14:56:15.698Z,12.80
2018-11-04T14:58:43.768Z,12.80
2018-11-04T15:01:12.843Z,12.90
2018-11-04T15:03:40.870Z,12.90
2018-11-04T15:06:08.940Z,12.90
2018-11-04T15:08:37.294Z,13.00
2018-11-04T15:11:05.338Z,13.10
2018-11-04T15:13:33.446Z,13.10
2018-11-04T15:16:01.577Z,13.10
2018-11-04T15:18:29.831Z,13.20
2018-11-04T15:20:57.942Z,13.20
2018-11-04T15:23:26.072Z,13.10
2018-11-04T15:25:54.206Z,13.10
2018-11-04T15:28:22.288Z,13.00
2018-11-04T15:30:50.468Z,13.00
2018-11-04T15:33:18.540Z,13.00
2018-11-04T15:35:50.498Z,13.10
2018-11-04T15:38:20.098Z,13.10
2018-11-04T15:40:55.542Z,13.00
2018-11-04T15:43:25.726Z,13.00
2018-11-04T15:45:59.245Z,12.90
2018-11-04T15:48:36.210Z,12.90
2018-11-04T15:51:06.304Z,12.80
2018-11-04T15:53:40.782Z,12.70
2018-11-04T15:56:12.845Z,12.60
2018-11-04T15:58:43.338Z,12.60
2018-11-04T16:01:17.802Z,12.60
2018-11-04T16:03:50.049Z,12.60
2018-11-04T16:06:22.712Z,12.60
2018-11-04T16:08:58.335Z,12.60
2018-11-04T16:11:32.078Z,12.50
2018-11-04T16:14:01.483Z,12.50
2018-11-04T16:16:29.860Z,12.50
2018-11-04T16:18:57.903Z,12.50
2018-11-04T16:21:26.009Z,12.40
2018-11-04T16:23:56.548Z,12.30
2018-11-04T16:26:24.614Z,12.30
2018-11-04T16:28:52.808Z,12.30
2018-11-04T16:31:20.885Z,12.20
2018-11-04T16:33:49.083Z,12.10
2018-11-04T16:36:17.717Z,12.20
2018-11-04T16:38:45.929Z,12.30
2018-11-04T16:41:14.099Z,12.40
2018-11-04T16:43:42.255Z,12.20
2018-11-04T16:46:10.353Z,12.10
2018-11-04T16:48:38.481Z,12.00
2018-11-04T16:51:06.614Z,11.90
2018-11-04T16:53:34.890Z,11.80
2018-11-04T16:56:03.012Z,12.00
2018-11-04T16:58:31.157Z,12.10
2018-11-04T17:00:59.249Z,12.10
2018-11-04T17:03:27.372Z,12.10
2018-11-04T17:05:55.923Z,12.20
2018-11-04T17:08:24.058Z,12.10
2018-11-04T17:10:52.373Z,11.90
2018-11-04T17:13:20.469Z,11.80
2018-11-04T17:15:48.542Z,11.60
2018-11-04T17:18:16.687Z,11.50
2018-11-04T17:20:44.713Z,11.40
2018-11-04T17:23:12.801Z,11.40
2018-11-04T17:25:40.874Z,11.30
2018-11-04T17:28:13.152Z,11.20
2018-11-04T17:30:41.747Z,11.20
2018-11-04T17:33:09.923Z,11.20
2018-11-04T17:35:37.991Z,11.10
2018-11-04T17:38:06.205Z,11.10
2018-11-04T17:40:34.375Z,11.00
2018-11-04T17:43:02.566Z,11.00
2018-11-04T17:45:30.831Z,10.90
2018-11-04T17:47:58.826Z,10.90
2018-11-04T17:50:26.901Z,11.00
2018-11-04T17:52:55.021Z,11.10
2018-11-04T17:55:23.080Z,11.10
2018-11-04T17:57:52.597Z,11.10
2018-11-04T18:00:21.206Z,11.20
2018-11-04T18:02:49.291Z,11.10
2018-11-04T18:05:17.405Z,11.00
2018-11-04T18:07:45.584Z,10.90
2018-11-04T18:10:13.655Z,10.90
2018-11-04T18:12:41.792Z,10.80
2018-11-04T18:15:09.867Z,10.80
2018-11-04T18:17:44.609Z,10.70
2018-11-04T18:20:12.712Z,10.70
2018-11-04T18:22:40.900Z,10.60
2018-11-04T18:25:09.257Z,10.50
2018-11-04T18:27:37.352Z,10.40
2018-11-04T18:30:07.990Z,10.40
2018-11-04T18:32:36.062Z,10.30
2018-11-04T18:35:04.459Z,10.30
2018-11-04T18:37:32.583Z,10.20
2018-11-04T18:40:00.900Z,10.10
2018-11-04T18:42:29.034Z,10.00
2018-11-04T18:44:57.204Z,10.00
2018-11-04T18:47:25.317Z,9.90
2018-11-04T18:49:53.334Z,9.80
2018-11-04T18:52:21.576Z,9.80
2018-11-04T18:54:49.667Z,9.70
2018-11-04T18:57:17.857Z,9.70
2018-11-04T18:59:45.907Z,9.70
2018-11-04T19:02:15.059Z,9.60
2018-11-04T19:04:43.356Z,9.60
2018-11-04T19:07:11.500Z,9.60
2018-11-04T19:09:39.694Z,9.60
2018-11-04T19:12:07.925Z,9.60
2018-11-04T19:14:36.119Z,9.50
2018-11-04T19:17:04.675Z,9.60
2018-11-04T19:19:32.772Z,9.50
2018-11-04T19:22:01.078Z,9.50
2018-11-04T19:24:29.564Z,9.50
2018-11-04T19:26:57.618Z,9.40
2018-11-04T19:29:25.668Z,9.40
2018-11-04T19:31:53.781Z,9.40
2018-11-04T19:34:21.898Z,9.30
2018-11-04T19:36:50.063Z,9.30
2018-11-04T19:39:18.206Z,9.30
2018-11-04T19:41:46.396Z,9.30
2018-11-04T19:44:15.344Z,9.30
2018-11-04T19:46:44.239Z,9.20
2018-11-04T19:49:12.483Z,9.20
2018-11-04T19:51:40.592Z,9.20
2018-11-04T19:54:08.791Z,9.20
2018-11-04T19:56:36.820Z,9.10
2018-11-04T19:59:05.300Z,9.10
2018-11-04T20:01:33.309Z,9.10
2018-11-04T20:04:01.531Z,9.10
2018-11-04T20:06:29.583Z,9.10
2018-11-04T20:08:57.665Z,9.10
2018-11-04T20:11:28.434Z,9.10
2018-11-04T20:13:56.665Z,9.10
2018-11-04T20:16:24.803Z,9.00
2018-11-04T20:18:53.162Z,9.10
2018-11-04T20:21:21.229Z,9.00
2018-11-04T20:23:49.544Z,9.00
2018-11-04T20:26:17.788Z,9.00
2018-11-04T20:28:45.997Z,9.00
2018-11-04T20:31:14.095Z,9.00
2018-11-04T20:33:42.194Z,9.00
2018-11-04T20:36:10.241Z,8.90
2018-11-04T20:38:38.462Z,8.90
2018-11-04T20:41:06.529Z,8.90
2018-11-04T20:43:34.577Z,8.90
2018-11-04T20:46:02.856Z,8.90
2018-11-04T20:48:30.911Z,8.80
2018-11-04T20:50:58.977Z,8.80
2018-11-04T20:53:27.310Z,8.70
2018-11-04T20:55:55.527Z,8.70
2018-11-04T20:58:23.719Z,8.70
2018-11-04T21:00:51.712Z,8.60
2018-11-04T21:03:19.926Z,8.60
2018-11-04T21:05:48.015Z,8.50
2018-11-04T21:08:16.092Z,8.50
2018-11-04T21:10:44.178Z,8.40
2018-11-04T21:13:12.252Z,8.40
2018-11-04T21:15:40.625Z,8.40
2018-11-04T21:18:08.769Z,8.40
2018-11-04T21:20:36.914Z,8.30
2018-11-04T21:23:05.085Z,8.30
2018-11-04T21:25:33.391Z,8.30
2018-11-04T21:28:01.278Z,8.30
2018-11-04T21:30:29.393Z,8.20
2018-11-04T21:32:57.556Z,8.20
2018-11-04T21:35:25.632Z,8.20
2018-11-04T21:37:53.865Z,8.10
2018-11-04T21:40:21.897Z,8.10
2018-11-04T21:42:50.129Z,8.10
2018-11-04T21:45:18.008Z,8.10
2018-11-04T21:47:46.149Z,8.00
2018-11-04T21:50:14.279Z,8.00
2018-11-04T21:52:42.431Z,8.00
2018-11-04T21:55:10.674Z,7.90
2018-11-04T21:57:38.708Z,7.90
2018-11-04T22:00:08.159Z,7.90
2018-11-04T22:02:36.470Z,7.90
2018-11-04T22:05:04.944Z,7.90
2018-11-04T22:07:33.020Z,7.90
2018-11-04T22:10:01.099Z,7.90
2018-11-04T22:12:29.148Z,7.80
2018-11-04T22:14:57.247Z,7.80
2018-11-04T22:17:25.374Z,7.80
2018-11-04T22:19:53.437Z,7.80
2018-11-04T22:22:21.593Z,7.80
2018-11-04T22:24:49.567Z,7.70
2018-11-04T22:27:17.632Z,7.70
2018-11-04T22:29:45.682Z,7.70
2018-11-04T22:32:13.833Z,7.70
2018-11-04T22:34:41.981Z,7.60
2018-11-04T22:37:10.168Z,7.60
2018-11-04T22:39:38.257Z,7.60
2018-11-04T22:42:06.341Z,7.60
2018-11-04T22:44:34.366Z,7.60
2018-11-04T22:47:03.481Z,7.60
2018-11-04T22:49:31.555Z,7.60
2018-11-04T22:51:59.644Z,7.60
2018-11-04T22:54:27.693Z,7.50
2018-11-04T22:56:55.784Z,7.50
2018-11-04T22:59:23.854Z,7.50
2018-11-04T23:01:51.990Z,7.50
2018-11-04T23:04:19.945Z,7.50
2018-11-04T23:06:48.039Z,7.50
2018-11-04T23:09:16.079Z,7.40
2018-11-04T23:11:44.127Z,7.40
2018-11-04T23:14:12.248Z,7.40
2018-11-04T23:16:40.279Z,7.40
2018-11-04T23:19:08.365Z,7.40
2018-11-04T23:21:36.601Z,7.40
2018-11-04T23:24:05.682Z,7.30
2018-11-04T23:26:33.752Z,7.30
2018-11-04T23:29:01.861Z,7.30
2018-11-04T23:31:29.893Z,7.30
2018-11-04T23:33:57.941Z,7.30
2018-11-04T23:36:25.947Z,7.30
2018-11-04T23:38:54.098Z,7.30
2018-11-04T23:41:22.158Z,7.20
2018-11-04T23:43:50.229Z,7.20
2018-11-04T23:46:18.292Z,7.20
2018-11-04T23:48:46.345Z,7.20
2018-11-04T23:51:14.411Z,7.20
2018-11-04T23:53:42.619Z,7.20
2018-11-04T23:56:10.673Z,7.20
2018-11-04T23:58:38.717Z,7.10
